sensor_id;sensor_type;location;lat;lon;timestamp;P1;durP1;ratioP1;P2;durP2;ratioP2
48189;SDS011;33980;47.436;18.926;2023-09-19T00:00:47;3.20;;;1.70;;
48189;SDS011;33980;47.436;18.926;2023-09-19T00:03:17;3.25;;;1.95;;
48189;SDS011;33980;47.436;18.926;2023-09-19T00:05:46;3.03;;;1.70;;
48189;SDS011;33980;47.436;18.926;2023-09-19T00:08:15;3.95;;;1.67;;
48189;SDS011;33980;47.436;18.926;2023-09-19T00:10:44;3.12;;;1.67;;
48189;SDS011;33980;47.436;18.926;2023-09-19T00:13:14;4.03;;;2.28;;
48189;SDS011;33980;47.436;18.926;2023-09-19T00:15:44;4.28;;;1.80;;
48189;SDS011;33980;47.436;18.926;2023-09-19T00:18:16;3.37;;;1.90;;
48189;SDS011;33980;47.436;18.926;2023-09-19T00:20:47;3.30;;;1.70;;
48189;SDS011;33980;47.436;18.926;2023-09-19T00:23:17;5.82;;;2.42;;
48189;SDS011;33980;47.436;18.926;2023-09-19T00:25:47;3.08;;;1.67;;
48189;SDS011;33980;47.436;18.926;2023-09-19T00:28:17;3.70;;;1.98;;
48189;SDS011;33980;47.436;18.926;2023-09-19T00:30:47;5.10;;;2.92;;
48189;SDS011;33980;47.436;18.926;2023-09-19T00:33:18;4.53;;;2.47;;
48189;SDS011;33980;47.436;18.926;2023-09-19T00:35:47;6.37;;;2.45;;
48189;SDS011;33980;47.436;18.926;2023-09-19T00:38:16;7.10;;;2.42;;
48189;SDS011;33980;47.436;18.926;2023-09-19T00:40:49;6.95;;;2.00;;
48189;SDS011;33980;47.436;18.926;2023-09-19T00:43:19;3.75;;;2.42;;
48189;SDS011;33980;47.436;18.926;2023-09-19T00:45:53;3.72;;;1.85;;
48189;SDS011;33980;47.436;18.926;2023-09-19T00:48:23;4.20;;;2.05;;
48189;SDS011;33980;47.436;18.926;2023-09-19T00:50:57;3.00;;;1.62;;
48189;SDS011;33980;47.436;18.926;2023-09-19T00:53:27;3.47;;;1.87;;
48189;SDS011;33980;47.436;18.926;2023-09-19T00:55:56;7.18;;;3.10;;
48189;SDS011;33980;47.436;18.926;2023-09-19T00:58:26;4.15;;;2.10;;
48189;SDS011;33980;47.436;18.926;2023-09-19T01:01:01;3.45;;;2.00;;
48189;SDS011;33980;47.436;18.926;2023-09-19T01:03:30;3.58;;;1.87;;
48189;SDS011;33980;47.436;18.926;2023-09-19T01:05:59;5.05;;;2.30;;
48189;SDS011;33980;47.436;18.926;2023-09-19T01:08:29;4.40;;;2.00;;
48189;SDS011;33980;47.436;18.926;2023-09-19T01:10:59;4.78;;;2.37;;
48189;SDS011;33980;47.436;18.926;2023-09-19T01:13:34;5.68;;;2.05;;
48189;SDS011;33980;47.436;18.926;2023-09-19T01:16:11;3.60;;;1.80;;
48189;SDS011;33980;47.436;18.926;2023-09-19T01:18:47;7.22;;;3.60;;
48189;SDS011;33980;47.436;18.926;2023-09-19T01:21:22;4.12;;;2.15;;
48189;SDS011;33980;47.436;18.926;2023-09-19T01:24:07;5.07;;;2.50;;
48189;SDS011;33980;47.436;18.926;2023-09-19T01:26:56;5.18;;;2.35;;
48189;SDS011;33980;47.436;18.926;2023-09-19T01:29:38;4.70;;;2.22;;
48189;SDS011;33980;47.436;18.926;2023-09-19T01:32:09;7.20;;;2.40;;
48189;SDS011;33980;47.436;18.926;2023-09-19T01:34:44;4.45;;;2.62;;
48189;SDS011;33980;47.436;18.926;2023-09-19T01:37:16;4.55;;;2.30;;
48189;SDS011;33980;47.436;18.926;2023-09-19T01:39:48;4.90;;;2.10;;
48189;SDS011;33980;47.436;18.926;2023-09-19T01:42:22;4.60;;;2.35;;
48189;SDS011;33980;47.436;18.926;2023-09-19T01:45:02;6.50;;;2.53;;
48189;SDS011;33980;47.436;18.926;2023-09-19T01:47:37;9.88;;;3.20;;
48189;SDS011;33980;47.436;18.926;2023-09-19T01:50:12;4.70;;;2.47;;
48189;SDS011;33980;47.436;18.926;2023-09-19T01:52:47;4.70;;;2.30;;
48189;SDS011;33980;47.436;18.926;2023-09-19T01:55:18;4.82;;;2.67;;
48189;SDS011;33980;47.436;18.926;2023-09-19T01:57:49;5.50;;;2.55;;
48189;SDS011;33980;47.436;18.926;2023-09-19T02:00:23;6.95;;;2.25;;
48189;SDS011;33980;47.436;18.926;2023-09-19T02:02:54;5.65;;;2.50;;
48189;SDS011;33980;47.436;18.926;2023-09-19T02:05:27;4.43;;;2.30;;
48189;SDS011;33980;47.436;18.926;2023-09-19T02:07:56;4.85;;;2.20;;
48189;SDS011;33980;47.436;18.926;2023-09-19T02:10:26;4.20;;;2.28;;
48189;SDS011;33980;47.436;18.926;2023-09-19T02:12:54;5.93;;;3.42;;
48189;SDS011;33980;47.436;18.926;2023-09-19T02:15:24;4.93;;;2.90;;
48189;SDS011;33980;47.436;18.926;2023-09-19T02:17:54;5.22;;;2.70;;
48189;SDS011;33980;47.436;18.926;2023-09-19T02:20:24;4.32;;;2.17;;
48189;SDS011;33980;47.436;18.926;2023-09-19T02:22:53;5.20;;;2.30;;
48189;SDS011;33980;47.436;18.926;2023-09-19T02:25:22;5.22;;;2.55;;
48189;SDS011;33980;47.436;18.926;2023-09-19T02:27:54;6.35;;;2.72;;
48189;SDS011;33980;47.436;18.926;2023-09-19T02:30:25;6.47;;;2.58;;
48189;SDS011;33980;47.436;18.926;2023-09-19T02:32:57;5.60;;;3.47;;
48189;SDS011;33980;47.436;18.926;2023-09-19T02:35:28;4.93;;;1.98;;
48189;SDS011;33980;47.436;18.926;2023-09-19T02:38:01;7.07;;;2.90;;
48189;SDS011;33980;47.436;18.926;2023-09-19T02:40:33;3.53;;;2.08;;
48189;SDS011;33980;47.436;18.926;2023-09-19T02:43:04;4.78;;;2.80;;
48189;SDS011;33980;47.436;18.926;2023-09-19T02:45:34;6.07;;;2.70;;
48189;SDS011;33980;47.436;18.926;2023-09-19T02:48:04;4.68;;;2.80;;
48189;SDS011;33980;47.436;18.926;2023-09-19T02:50:34;4.07;;;2.33;;
48189;SDS011;33980;47.436;18.926;2023-09-19T02:53:03;5.55;;;2.67;;
48189;SDS011;33980;47.436;18.926;2023-09-19T02:55:35;4.05;;;2.12;;
48189;SDS011;33980;47.436;18.926;2023-09-19T02:58:05;4.90;;;2.72;;
48189;SDS011;33980;47.436;18.926;2023-09-19T03:00:35;5.75;;;2.97;;
48189;SDS011;33980;47.436;18.926;2023-09-19T03:03:05;4.10;;;2.05;;
48189;SDS011;33980;47.436;18.926;2023-09-19T03:05:35;5.10;;;2.35;;
48189;SDS011;33980;47.436;18.926;2023-09-19T03:08:06;6.00;;;2.92;;
48189;SDS011;33980;47.436;18.926;2023-09-19T03:10:35;4.47;;;2.40;;
48189;SDS011;33980;47.436;18.926;2023-09-19T03:13:05;4.07;;;2.37;;
48189;SDS011;33980;47.436;18.926;2023-09-19T03:15:36;4.72;;;2.78;;
48189;SDS011;33980;47.436;18.926;2023-09-19T03:18:13;5.20;;;2.35;;
48189;SDS011;33980;47.436;18.926;2023-09-19T03:20:42;6.25;;;2.45;;
48189;SDS011;33980;47.436;18.926;2023-09-19T03:23:12;5.25;;;2.62;;
48189;SDS011;33980;47.436;18.926;2023-09-19T03:25:41;3.42;;;1.87;;
48189;SDS011;33980;47.436;18.926;2023-09-19T03:28:10;4.80;;;2.10;;
48189;SDS011;33980;47.436;18.926;2023-09-19T03:30:39;5.30;;;2.33;;
48189;SDS011;33980;47.436;18.926;2023-09-19T03:33:09;5.35;;;2.45;;
48189;SDS011;33980;47.436;18.926;2023-09-19T03:35:41;4.32;;;2.08;;
48189;SDS011;33980;47.436;18.926;2023-09-19T03:38:12;4.10;;;2.37;;
48189;SDS011;33980;47.436;18.926;2023-09-19T03:40:41;5.25;;;2.67;;
48189;SDS011;33980;47.436;18.926;2023-09-19T03:43:10;5.12;;;2.62;;
48189;SDS011;33980;47.436;18.926;2023-09-19T03:45:38;5.97;;;3.15;;
48189;SDS011;33980;47.436;18.926;2023-09-19T03:48:08;4.45;;;2.80;;
48189;SDS011;33980;47.436;18.926;2023-09-19T03:50:37;3.95;;;2.42;;
48189;SDS011;33980;47.436;18.926;2023-09-19T03:53:07;3.65;;;2.20;;
48189;SDS011;33980;47.436;18.926;2023-09-19T03:55:36;5.70;;;2.90;;
48189;SDS011;33980;47.436;18.926;2023-09-19T03:58:06;6.05;;;3.03;;
48189;SDS011;33980;47.436;18.926;2023-09-19T04:00:34;4.72;;;2.30;;
48189;SDS011;33980;47.436;18.926;2023-09-19T04:03:06;4.15;;;2.30;;
48189;SDS011;33980;47.436;18.926;2023-09-19T04:05:36;5.72;;;2.50;;
48189;SDS011;33980;47.436;18.926;2023-09-19T04:08:05;4.87;;;2.50;;
48189;SDS011;33980;47.436;18.926;2023-09-19T04:10:36;6.22;;;2.97;;
48189;SDS011;33980;47.436;18.926;2023-09-19T04:13:04;5.43;;;2.57;;
48189;SDS011;33980;47.436;18.926;2023-09-19T04:15:35;5.20;;;2.78;;
48189;SDS011;33980;47.436;18.926;2023-09-19T04:18:04;4.45;;;2.15;;
48189;SDS011;33980;47.436;18.926;2023-09-19T04:20:33;5.10;;;2.92;;
48189;SDS011;33980;47.436;18.926;2023-09-19T04:23:02;3.22;;;1.73;;
48189;SDS011;33980;47.436;18.926;2023-09-19T04:25:32;4.27;;;1.90;;
48189;SDS011;33980;47.436;18.926;2023-09-19T04:28:03;3.50;;;1.67;;
48189;SDS011;33980;47.436;18.926;2023-09-19T04:30:33;2.62;;;1.20;;
48189;SDS011;33980;47.436;18.926;2023-09-19T04:33:04;1.95;;;0.98;;
48189;SDS011;33980;47.436;18.926;2023-09-19T04:35:34;1.37;;;0.82;;
48189;SDS011;33980;47.436;18.926;2023-09-19T04:38:03;0.47;;;0.47;;
48189;SDS011;33980;47.436;18.926;2023-09-19T04:40:34;1.30;;;0.65;;
48189;SDS011;33980;47.436;18.926;2023-09-19T04:43:04;1.70;;;0.62;;
48189;SDS011;33980;47.436;18.926;2023-09-19T04:45:34;0.93;;;0.77;;
48189;SDS011;33980;47.436;18.926;2023-09-19T04:48:03;0.90;;;0.80;;
48189;SDS011;33980;47.436;18.926;2023-09-19T04:50:33;0.70;;;0.60;;
48189;SDS011;33980;47.436;18.926;2023-09-19T04:53:02;0.40;;;0.40;;
48189;SDS011;33980;47.436;18.926;2023-09-19T04:55:32;0.90;;;0.50;;
48189;SDS011;33980;47.436;18.926;2023-09-19T04:58:00;1.80;;;0.50;;
48189;SDS011;33980;47.436;18.926;2023-09-19T05:00:31;1.70;;;0.50;;
48189;SDS011;33980;47.436;18.926;2023-09-19T05:03:02;0.85;;;0.60;;
48189;SDS011;33980;47.436;18.926;2023-09-19T05:08:02;0.68;;;0.50;;
48189;SDS011;33980;47.436;18.926;2023-09-19T05:10:32;0.50;;;0.50;;
48189;SDS011;33980;47.436;18.926;2023-09-19T05:13:02;0.37;;;0.37;;
48189;SDS011;33980;47.436;18.926;2023-09-19T05:15:33;0.35;;;0.35;;
48189;SDS011;33980;47.436;18.926;2023-09-19T05:18:03;0.77;;;0.40;;
48189;SDS011;33980;47.436;18.926;2023-09-19T05:20:33;0.82;;;0.47;;
48189;SDS011;33980;47.436;18.926;2023-09-19T05:23:07;0.30;;;0.30;;
48189;SDS011;33980;47.436;18.926;2023-09-19T05:25:39;2.50;;;0.40;;
48189;SDS011;33980;47.436;18.926;2023-09-19T05:28:10;0.40;;;0.40;;
48189;SDS011;33980;47.436;18.926;2023-09-19T05:30:44;0.30;;;0.30;;
48189;SDS011;33980;47.436;18.926;2023-09-19T05:33:15;0.40;;;0.40;;
48189;SDS011;33980;47.436;18.926;2023-09-19T05:35:45;0.70;;;0.35;;
48189;SDS011;33980;47.436;18.926;2023-09-19T05:38:16;0.47;;;0.47;;
48189;SDS011;33980;47.436;18.926;2023-09-19T05:40:46;0.60;;;0.60;;
48189;SDS011;33980;47.436;18.926;2023-09-19T05:43:15;0.50;;;0.50;;
48189;SDS011;33980;47.436;18.926;2023-09-19T05:45:45;0.75;;;0.70;;
48189;SDS011;33980;47.436;18.926;2023-09-19T05:48:14;1.40;;;0.50;;
48189;SDS011;33980;47.436;18.926;2023-09-19T05:50:44;0.85;;;0.55;;
48189;SDS011;33980;47.436;18.926;2023-09-19T05:53:16;0.40;;;0.40;;
48189;SDS011;33980;47.436;18.926;2023-09-19T05:55:46;0.43;;;0.40;;
48189;SDS011;33980;47.436;18.926;2023-09-19T05:58:14;0.55;;;0.50;;
48189;SDS011;33980;47.436;18.926;2023-09-19T06:00:47;0.57;;;0.43;;
48189;SDS011;33980;47.436;18.926;2023-09-19T06:05:47;0.40;;;0.40;;
48189;SDS011;33980;47.436;18.926;2023-09-19T06:08:16;0.75;;;0.40;;
48189;SDS011;33980;47.436;18.926;2023-09-19T06:10:46;0.95;;;0.40;;
48189;SDS011;33980;47.436;18.926;2023-09-19T06:13:16;0.55;;;0.47;;
48189;SDS011;33980;47.436;18.926;2023-09-19T06:15:50;0.70;;;0.40;;
48189;SDS011;33980;47.436;18.926;2023-09-19T06:18:19;0.75;;;0.60;;
48189;SDS011;33980;47.436;18.926;2023-09-19T06:20:48;2.47;;;0.70;;
48189;SDS011;33980;47.436;18.926;2023-09-19T06:23:18;0.60;;;0.57;;
48189;SDS011;33980;47.436;18.926;2023-09-19T06:25:50;0.57;;;0.55;;
48189;SDS011;33980;47.436;18.926;2023-09-19T06:28:19;0.45;;;0.45;;
48189;SDS011;33980;47.436;18.926;2023-09-19T06:30:52;0.52;;;0.50;;
48189;SDS011;33980;47.436;18.926;2023-09-19T06:33:21;0.53;;;0.53;;
48189;SDS011;33980;47.436;18.926;2023-09-19T06:35:50;1.00;;;0.57;;
48189;SDS011;33980;47.436;18.926;2023-09-19T06:38:24;0.52;;;0.50;;
48189;SDS011;33980;47.436;18.926;2023-09-19T06:40:53;0.50;;;0.50;;
48189;SDS011;33980;47.436;18.926;2023-09-19T06:43:22;1.20;;;0.50;;
48189;SDS011;33980;47.436;18.926;2023-09-19T06:45:53;0.40;;;0.40;;
48189;SDS011;33980;47.436;18.926;2023-09-19T06:50:53;0.47;;;0.40;;
48189;SDS011;33980;47.436;18.926;2023-09-19T06:53:22;1.17;;;0.68;;
48189;SDS011;33980;47.436;18.926;2023-09-19T06:55:51;0.50;;;0.50;;
48189;SDS011;33980;47.436;18.926;2023-09-19T06:58:21;0.30;;;0.30;;
48189;SDS011;33980;47.436;18.926;2023-09-19T07:00:50;0.57;;;0.57;;
48189;SDS011;33980;47.436;18.926;2023-09-19T07:03:20;1.00;;;0.60;;
48189;SDS011;33980;47.436;18.926;2023-09-19T07:05:53;1.08;;;0.55;;
48189;SDS011;33980;47.436;18.926;2023-09-19T07:08:23;0.83;;;0.60;;
48189;SDS011;33980;47.436;18.926;2023-09-19T07:10:52;0.98;;;0.62;;
48189;SDS011;33980;47.436;18.926;2023-09-19T07:13:23;0.90;;;0.60;;
48189;SDS011;33980;47.436;18.926;2023-09-19T07:15:53;0.40;;;0.40;;
48189;SDS011;33980;47.436;18.926;2023-09-19T07:18:24;0.60;;;0.60;;
48189;SDS011;33980;47.436;18.926;2023-09-19T07:20:56;0.47;;;0.47;;
48189;SDS011;33980;47.436;18.926;2023-09-19T07:23:28;1.70;;;0.80;;
48189;SDS011;33980;47.436;18.926;2023-09-19T07:25:57;0.40;;;0.40;;
48189;SDS011;33980;47.436;18.926;2023-09-19T07:28:27;0.40;;;0.40;;
48189;SDS011;33980;47.436;18.926;2023-09-19T07:30:57;0.40;;;0.40;;
48189;SDS011;33980;47.436;18.926;2023-09-19T07:35:58;0.52;;;0.52;;
48189;SDS011;33980;47.436;18.926;2023-09-19T07:38:28;0.70;;;0.70;;
48189;SDS011;33980;47.436;18.926;2023-09-19T07:40:59;0.43;;;0.43;;
48189;SDS011;33980;47.436;18.926;2023-09-19T07:43:29;0.85;;;0.65;;
48189;SDS011;33980;47.436;18.926;2023-09-19T07:46:02;0.35;;;0.35;;
48189;SDS011;33980;47.436;18.926;2023-09-19T07:48:36;1.05;;;0.52;;
48189;SDS011;33980;47.436;18.926;2023-09-19T07:51:06;0.50;;;0.50;;
48189;SDS011;33980;47.436;18.926;2023-09-19T07:53:36;2.05;;;1.25;;
48189;SDS011;33980;47.436;18.926;2023-09-19T07:56:08;0.40;;;0.40;;
48189;SDS011;33980;47.436;18.926;2023-09-19T07:58:39;2.28;;;0.73;;
48189;SDS011;33980;47.436;18.926;2023-09-19T08:01:09;2.37;;;0.90;;
48189;SDS011;33980;47.436;18.926;2023-09-19T08:03:42;0.50;;;0.50;;
48189;SDS011;33980;47.436;18.926;2023-09-19T08:06:12;0.70;;;0.70;;
48189;SDS011;33980;47.436;18.926;2023-09-19T08:08:41;0.50;;;0.50;;
48189;SDS011;33980;47.436;18.926;2023-09-19T08:11:09;0.65;;;0.60;;
48189;SDS011;33980;47.436;18.926;2023-09-19T08:13:39;0.52;;;0.52;;
48189;SDS011;33980;47.436;18.926;2023-09-19T08:16:11;0.50;;;0.50;;
48189;SDS011;33980;47.436;18.926;2023-09-19T08:18:42;0.68;;;0.65;;
48189;SDS011;33980;47.436;18.926;2023-09-19T08:21:11;1.50;;;0.60;;
48189;SDS011;33980;47.436;18.926;2023-09-19T08:23:47;0.60;;;0.60;;
48189;SDS011;33980;47.436;18.926;2023-09-19T08:26:16;0.50;;;0.43;;
48189;SDS011;33980;47.436;18.926;2023-09-19T08:28:45;1.10;;;0.62;;
48189;SDS011;33980;47.436;18.926;2023-09-19T08:31:15;0.50;;;0.50;;
48189;SDS011;33980;47.436;18.926;2023-09-19T08:33:45;0.80;;;0.57;;
48189;SDS011;33980;47.436;18.926;2023-09-19T08:36:16;0.62;;;0.60;;
48189;SDS011;33980;47.436;18.926;2023-09-19T08:38:48;1.10;;;0.43;;
48189;SDS011;33980;47.436;18.926;2023-09-19T08:41:17;0.73;;;0.65;;
48189;SDS011;33980;47.436;18.926;2023-09-19T08:43:46;0.85;;;0.47;;
48189;SDS011;33980;47.436;18.926;2023-09-19T08:46:16;2.78;;;0.60;;
48189;SDS011;33980;47.436;18.926;2023-09-19T08:48:53;0.70;;;0.60;;
48189;SDS011;33980;47.436;18.926;2023-09-19T08:51:39;0.57;;;0.50;;
48189;SDS011;33980;47.436;18.926;2023-09-19T08:54:12;1.10;;;0.68;;
48189;SDS011;33980;47.436;18.926;2023-09-19T08:56:49;1.05;;;0.80;;
48189;SDS011;33980;47.436;18.926;2023-09-19T08:59:20;1.75;;;1.08;;
48189;SDS011;33980;47.436;18.926;2023-09-19T09:01:56;1.15;;;0.80;;
48189;SDS011;33980;47.436;18.926;2023-09-19T09:04:32;1.98;;;1.40;;
48189;SDS011;33980;47.436;18.926;2023-09-19T09:07:06;1.27;;;0.70;;
48189;SDS011;33980;47.436;18.926;2023-09-19T09:09:48;1.20;;;0.80;;
48189;SDS011;33980;47.436;18.926;2023-09-19T09:12:24;1.92;;;1.02;;
48189;SDS011;33980;47.436;18.926;2023-09-19T09:14:53;1.65;;;0.95;;
48189;SDS011;33980;47.436;18.926;2023-09-19T09:17:24;2.92;;;1.52;;
48189;SDS011;33980;47.436;18.926;2023-09-19T09:19:55;1.08;;;0.77;;
48189;SDS011;33980;47.436;18.926;2023-09-19T09:22:24;1.00;;;0.85;;
48189;SDS011;33980;47.436;18.926;2023-09-19T09:24:54;2.37;;;1.12;;
48189;SDS011;33980;47.436;18.926;2023-09-19T09:27:25;3.42;;;1.20;;
48189;SDS011;33980;47.436;18.926;2023-09-19T09:29:54;2.25;;;1.35;;
48189;SDS011;33980;47.436;18.926;2023-09-19T09:32:23;2.40;;;1.15;;
48189;SDS011;33980;47.436;18.926;2023-09-19T09:34:58;1.62;;;0.88;;
48189;SDS011;33980;47.436;18.926;2023-09-19T09:37:30;1.75;;;1.00;;
48189;SDS011;33980;47.436;18.926;2023-09-19T09:40:00;1.17;;;0.90;;
48189;SDS011;33980;47.436;18.926;2023-09-19T09:42:46;2.70;;;1.20;;
48189;SDS011;33980;47.436;18.926;2023-09-19T09:45:22;2.17;;;1.33;;
48189;SDS011;33980;47.436;18.926;2023-09-19T09:48:05;2.40;;;1.27;;
48189;SDS011;33980;47.436;18.926;2023-09-19T09:50:48;1.20;;;1.10;;
48189;SDS011;33980;47.436;18.926;2023-09-19T09:53:26;2.92;;;1.50;;
48189;SDS011;33980;47.436;18.926;2023-09-19T09:56:03;2.78;;;1.52;;
48189;SDS011;33980;47.436;18.926;2023-09-19T09:58:37;3.08;;;1.55;;
48189;SDS011;33980;47.436;18.926;2023-09-19T10:01:08;2.75;;;1.40;;
48189;SDS011;33980;47.436;18.926;2023-09-19T10:03:38;2.55;;;1.30;;
48189;SDS011;33980;47.436;18.926;2023-09-19T10:06:11;2.50;;;1.20;;
48189;SDS011;33980;47.436;18.926;2023-09-19T10:08:59;2.42;;;1.27;;
48189;SDS011;33980;47.436;18.926;2023-09-19T10:11:41;2.17;;;1.25;;
48189;SDS011;33980;47.436;18.926;2023-09-19T10:14:17;1.27;;;1.10;;
48189;SDS011;33980;47.436;18.926;2023-09-19T10:16:50;2.10;;;1.37;;
48189;SDS011;33980;47.436;18.926;2023-09-19T10:19:29;2.85;;;1.45;;
48189;SDS011;33980;47.436;18.926;2023-09-19T10:22:02;1.58;;;1.20;;
48189;SDS011;33980;47.436;18.926;2023-09-19T10:24:36;2.40;;;1.40;;
48189;SDS011;33980;47.436;18.926;2023-09-19T10:27:26;1.98;;;1.30;;
48189;SDS011;33980;47.436;18.926;2023-09-19T10:29:58;3.22;;;1.45;;
48189;SDS011;33980;47.436;18.926;2023-09-19T10:32:27;3.42;;;1.40;;
48189;SDS011;33980;47.436;18.926;2023-09-19T10:35:01;2.30;;;1.30;;
48189;SDS011;33980;47.436;18.926;2023-09-19T10:37:36;1.45;;;1.20;;
48189;SDS011;33980;47.436;18.926;2023-09-19T10:40:07;1.40;;;1.08;;
48189;SDS011;33980;47.436;18.926;2023-09-19T10:42:40;2.12;;;1.35;;
48189;SDS011;33980;47.436;18.926;2023-09-19T10:45:10;2.00;;;1.23;;
48189;SDS011;33980;47.436;18.926;2023-09-19T10:47:40;1.52;;;1.08;;
48189;SDS011;33980;47.436;18.926;2023-09-19T10:50:12;2.20;;;1.25;;
48189;SDS011;33980;47.436;18.926;2023-09-19T10:52:52;1.12;;;0.85;;
48189;SDS011;33980;47.436;18.926;2023-09-19T10:55:28;1.27;;;0.80;;
48189;SDS011;33980;47.436;18.926;2023-09-19T10:57:58;1.60;;;1.00;;
48189;SDS011;33980;47.436;18.926;2023-09-19T11:00:51;1.60;;;1.00;;
48189;SDS011;33980;47.436;18.926;2023-09-19T11:03:21;0.77;;;0.60;;
48189;SDS011;33980;47.436;18.926;2023-09-19T11:06:05;1.40;;;0.82;;
48189;SDS011;33980;47.436;18.926;2023-09-19T11:08:53;0.60;;;0.60;;
48189;SDS011;33980;47.436;18.926;2023-09-19T11:11:44;2.45;;;0.90;;
48189;SDS011;33980;47.436;18.926;2023-09-19T11:14:37;1.40;;;0.75;;
48189;SDS011;33980;47.436;18.926;2023-09-19T11:20:23;0.68;;;0.65;;
48189;SDS011;33980;47.436;18.926;2023-09-19T11:23:22;0.50;;;0.50;;
48189;SDS011;33980;47.436;18.926;2023-09-19T11:25:54;1.45;;;0.60;;
48189;SDS011;33980;47.436;18.926;2023-09-19T11:28:32;0.52;;;0.50;;
48189;SDS011;33980;47.436;18.926;2023-09-19T11:34:46;1.12;;;0.75;;
48189;SDS011;33980;47.436;18.926;2023-09-19T11:40:38;1.05;;;0.82;;
48189;SDS011;33980;47.436;18.926;2023-09-19T11:43:30;1.20;;;0.52;;
48189;SDS011;33980;47.436;18.926;2023-09-19T11:46:07;0.47;;;0.47;;
48189;SDS011;33980;47.436;18.926;2023-09-19T11:48:39;1.10;;;0.55;;
48189;SDS011;33980;47.436;18.926;2023-09-19T11:51:12;0.45;;;0.45;;
48189;SDS011;33980;47.436;18.926;2023-09-19T11:53:50;0.52;;;0.40;;
48189;SDS011;33980;47.436;18.926;2023-09-19T11:56:23;0.43;;;0.43;;
48189;SDS011;33980;47.436;18.926;2023-09-19T11:58:56;0.82;;;0.80;;
48189;SDS011;33980;47.436;18.926;2023-09-19T12:01:29;1.05;;;0.60;;
48189;SDS011;33980;47.436;18.926;2023-09-19T12:04:00;0.85;;;0.60;;
48189;SDS011;33980;47.436;18.926;2023-09-19T12:06:32;0.95;;;0.88;;
48189;SDS011;33980;47.436;18.926;2023-09-19T12:09:02;0.55;;;0.50;;
48189;SDS011;33980;47.436;18.926;2023-09-19T12:11:40;0.40;;;0.40;;
48189;SDS011;33980;47.436;18.926;2023-09-19T12:14:25;0.30;;;0.30;;
48189;SDS011;33980;47.436;18.926;2023-09-19T12:16:55;0.50;;;0.50;;
48189;SDS011;33980;47.436;18.926;2023-09-19T12:19:28;0.95;;;0.68;;
48189;SDS011;33980;47.436;18.926;2023-09-19T12:21:57;0.90;;;0.60;;
48189;SDS011;33980;47.436;18.926;2023-09-19T12:24:32;0.52;;;0.37;;
48189;SDS011;33980;47.436;18.926;2023-09-19T12:27:04;2.05;;;1.10;;
48189;SDS011;33980;47.436;18.926;2023-09-19T12:29:45;0.88;;;0.43;;
48189;SDS011;33980;47.436;18.926;2023-09-19T12:32:16;0.55;;;0.30;;
48189;SDS011;33980;47.436;18.926;2023-09-19T12:34:51;1.12;;;0.40;;
48189;SDS011;33980;47.436;18.926;2023-09-19T12:37:22;0.60;;;0.32;;
48189;SDS011;33980;47.436;18.926;2023-09-19T12:40:03;0.30;;;0.30;;
48189;SDS011;33980;47.436;18.926;2023-09-19T12:42:44;0.50;;;0.50;;
48189;SDS011;33980;47.436;18.926;2023-09-19T12:45:15;0.55;;;0.50;;
48189;SDS011;33980;47.436;18.926;2023-09-19T12:51:04;2.00;;;0.50;;
48189;SDS011;33980;47.436;18.926;2023-09-19T12:53:38;1.17;;;0.40;;
48189;SDS011;33980;47.436;18.926;2023-09-19T12:56:11;0.85;;;0.50;;
48189;SDS011;33980;47.436;18.926;2023-09-19T12:58:54;1.92;;;0.73;;
48189;SDS011;33980;47.436;18.926;2023-09-19T13:01:25;0.80;;;0.35;;
48189;SDS011;33980;47.436;18.926;2023-09-19T13:04:15;0.85;;;0.50;;
48189;SDS011;33980;47.436;18.926;2023-09-19T13:06:48;1.65;;;0.73;;
48189;SDS011;33980;47.436;18.926;2023-09-19T13:09:18;0.40;;;0.32;;
48189;SDS011;33980;47.436;18.926;2023-09-19T13:11:48;0.73;;;0.43;;
48189;SDS011;33980;47.436;18.926;2023-09-19T13:14:19;0.75;;;0.45;;
48189;SDS011;33980;47.436;18.926;2023-09-19T13:16:54;1.27;;;0.60;;
48189;SDS011;33980;47.436;18.926;2023-09-19T13:19:37;0.43;;;0.40;;
48189;SDS011;33980;47.436;18.926;2023-09-19T13:25:09;0.32;;;0.30;;
48189;SDS011;33980;47.436;18.926;2023-09-19T13:27:42;1.42;;;0.45;;
48189;SDS011;33980;47.436;18.926;2023-09-19T13:30:12;0.70;;;0.60;;
48189;SDS011;33980;47.436;18.926;2023-09-19T13:32:43;0.60;;;0.50;;
48189;SDS011;33980;47.436;18.926;2023-09-19T13:35:14;0.47;;;0.47;;
48189;SDS011;33980;47.436;18.926;2023-09-19T13:37:44;0.57;;;0.40;;
48189;SDS011;33980;47.436;18.926;2023-09-19T13:40:18;1.05;;;0.65;;
48189;SDS011;33980;47.436;18.926;2023-09-19T13:42:47;0.85;;;0.30;;
48189;SDS011;33980;47.436;18.926;2023-09-19T13:45:21;0.57;;;0.40;;
48189;SDS011;33980;47.436;18.926;2023-09-19T13:47:53;1.67;;;0.60;;
48189;SDS011;33980;47.436;18.926;2023-09-19T13:50:22;0.62;;;0.35;;
48189;SDS011;33980;47.436;18.926;2023-09-19T13:52:52;0.40;;;0.40;;
48189;SDS011;33980;47.436;18.926;2023-09-19T13:55:21;0.65;;;0.30;;
48189;SDS011;33980;47.436;18.926;2023-09-19T13:57:52;0.60;;;0.40;;
48189;SDS011;33980;47.436;18.926;2023-09-19T14:00:23;1.85;;;0.43;;
48189;SDS011;33980;47.436;18.926;2023-09-19T14:02:53;0.40;;;0.30;;
48189;SDS011;33980;47.436;18.926;2023-09-19T14:05:23;0.40;;;0.40;;
48189;SDS011;33980;47.436;18.926;2023-09-19T14:07:55;3.50;;;0.47;;
48189;SDS011;33980;47.436;18.926;2023-09-19T14:10:24;0.30;;;0.30;;
48189;SDS011;33980;47.436;18.926;2023-09-19T14:12:54;0.52;;;0.30;;
48189;SDS011;33980;47.436;18.926;2023-09-19T14:15:26;0.55;;;0.28;;
48189;SDS011;33980;47.436;18.926;2023-09-19T14:17:59;0.32;;;0.22;;
48189;SDS011;33980;47.436;18.926;2023-09-19T14:20:28;0.40;;;0.40;;
48189;SDS011;33980;47.436;18.926;2023-09-19T14:22:57;0.40;;;0.30;;
48189;SDS011;33980;47.436;18.926;2023-09-19T14:25:27;0.77;;;0.32;;
48189;SDS011;33980;47.436;18.926;2023-09-19T14:27:57;0.30;;;0.30;;
48189;SDS011;33980;47.436;18.926;2023-09-19T14:30:26;0.75;;;0.60;;
48189;SDS011;33980;47.436;18.926;2023-09-19T14:32:55;1.15;;;0.62;;
48189;SDS011;33980;47.436;18.926;2023-09-19T14:35:27;1.08;;;0.43;;
48189;SDS011;33980;47.436;18.926;2023-09-19T14:37:56;0.50;;;0.32;;
48189;SDS011;33980;47.436;18.926;2023-09-19T14:40:25;0.85;;;0.40;;
48189;SDS011;33980;47.436;18.926;2023-09-19T14:42:54;2.47;;;0.50;;
48189;SDS011;33980;47.436;18.926;2023-09-19T14:45:22;1.30;;;0.50;;
48189;SDS011;33980;47.436;18.926;2023-09-19T14:47:53;0.55;;;0.40;;
48189;SDS011;33980;47.436;18.926;2023-09-19T14:50:23;0.28;;;0.28;;
48189;SDS011;33980;47.436;18.926;2023-09-19T14:52:55;0.75;;;0.43;;
48189;SDS011;33980;47.436;18.926;2023-09-19T14:55:25;0.30;;;0.30;;
48189;SDS011;33980;47.436;18.926;2023-09-19T14:57:55;0.32;;;0.20;;
48189;SDS011;33980;47.436;18.926;2023-09-19T15:00:25;0.40;;;0.40;;
48189;SDS011;33980;47.436;18.926;2023-09-19T15:02:55;6.35;;;1.65;;
48189;SDS011;33980;47.436;18.926;2023-09-19T15:05:25;0.30;;;0.30;;
48189;SDS011;33980;47.436;18.926;2023-09-19T15:07:58;0.80;;;0.52;;
48189;SDS011;33980;47.436;18.926;2023-09-19T15:10:28;0.65;;;0.52;;
48189;SDS011;33980;47.436;18.926;2023-09-19T15:12:58;0.40;;;0.40;;
48189;SDS011;33980;47.436;18.926;2023-09-19T15:15:27;1.85;;;0.62;;
48189;SDS011;33980;47.436;18.926;2023-09-19T15:17:57;0.47;;;0.30;;
48189;SDS011;33980;47.436;18.926;2023-09-19T15:20:27;1.50;;;0.60;;
48189;SDS011;33980;47.436;18.926;2023-09-19T15:23:00;0.65;;;0.40;;
48189;SDS011;33980;47.436;18.926;2023-09-19T15:25:30;1.12;;;0.43;;
48189;SDS011;33980;47.436;18.926;2023-09-19T15:28:03;1.00;;;0.40;;